sensor_id;sensor_type;location;lat;lon;timestamp;P1;durP1;ratioP1;P2;durP2;ratioP2
4375;SDS011;2202;50.866;12.750;2023-11-19T00:01:45;3.83;;;2.13;;
4375;SDS011;2202;50.866;12.750;2023-11-19T00:04:12;5.03;;;2.60;;
4375;SDS011;2202;50.866;12.750;2023-11-19T00:06:39;4.40;;;2.10;;
4375;SDS011;2202;50.866;12.750;2023-11-19T00:09:06;3.57;;;1.63;;
4375;SDS011;2202;50.866;12.750;2023-11-19T00:11:34;3.70;;;1.80;;
4375;SDS011;2202;50.866;12.750;2023-11-19T00:14:01;3.80;;;1.90;;
4375;SDS011;2202;50.866;12.750;2023-11-19T00:16:29;4.13;;;2.00;;
4375;SDS011;2202;50.866;12.750;2023-11-19T00:18:58;4.00;;;1.70;;
4375;SDS011;2202;50.866;12.750;2023-11-19T00:21:25;3.70;;;1.47;;
4375;SDS011;2202;50.866;12.750;2023-11-19T00:23:53;3.00;;;1.20;;
4375;SDS011;2202;50.866;12.750;2023-11-19T00:26:20;3.20;;;1.43;;
4375;SDS011;2202;50.866;12.750;2023-11-19T00:28:47;4.67;;;1.60;;
4375;SDS011;2202;50.866;12.750;2023-11-19T00:31:14;2.80;;;1.20;;
4375;SDS011;2202;50.866;12.750;2023-11-19T00:33:41;4.63;;;1.40;;
4375;SDS011;2202;50.866;12.750;2023-11-19T00:36:10;3.00;;;1.30;;
4375;SDS011;2202;50.866;12.750;2023-11-19T00:38:37;4.57;;;1.20;;
4375;SDS011;2202;50.866;12.750;2023-11-19T00:41:04;3.30;;;1.10;;
4375;SDS011;2202;50.866;12.750;2023-11-19T00:43:31;3.00;;;1.13;;
4375;SDS011;2202;50.866;12.750;2023-11-19T00:45:58;3.10;;;1.40;;
4375;SDS011;2202;50.866;12.750;2023-11-19T00:48:25;3.27;;;1.30;;
4375;SDS011;2202;50.866;12.750;2023-11-19T00:50:53;3.60;;;1.50;;
4375;SDS011;2202;50.866;12.750;2023-11-19T00:53:21;3.00;;;1.10;;
4375;SDS011;2202;50.866;12.750;2023-11-19T00:55:48;3.10;;;1.30;;
4375;SDS011;2202;50.866;12.750;2023-11-19T00:58:15;3.10;;;1.20;;
4375;SDS011;2202;50.866;12.750;2023-11-19T01:00:43;3.30;;;1.10;;
4375;SDS011;2202;50.866;12.750;2023-11-19T01:03:10;3.00;;;1.00;;
4375;SDS011;2202;50.866;12.750;2023-11-19T01:05:37;3.93;;;1.30;;
4375;SDS011;2202;50.866;12.750;2023-11-19T01:08:04;3.57;;;1.37;;
4375;SDS011;2202;50.866;12.750;2023-11-19T01:10:33;3.20;;;1.00;;
4375;SDS011;2202;50.866;12.750;2023-11-19T01:13:00;3.60;;;1.20;;
4375;SDS011;2202;50.866;12.750;2023-11-19T01:15:28;3.40;;;1.40;;
4375;SDS011;2202;50.866;12.750;2023-11-19T01:17:55;3.70;;;1.10;;
4375;SDS011;2202;50.866;12.750;2023-11-19T01:20:22;3.40;;;1.00;;
4375;SDS011;2202;50.866;12.750;2023-11-19T01:22:49;3.40;;;1.20;;
4375;SDS011;2202;50.866;12.750;2023-11-19T01:25:16;3.60;;;1.30;;
4375;SDS011;2202;50.866;12.750;2023-11-19T01:27:44;3.40;;;1.00;;
4375;SDS011;2202;50.866;12.750;2023-11-19T01:30:11;4.70;;;1.10;;
4375;SDS011;2202;50.866;12.750;2023-11-19T01:32:39;3.90;;;1.20;;
4375;SDS011;2202;50.866;12.750;2023-11-19T01:35:06;3.50;;;1.20;;
4375;SDS011;2202;50.866;12.750;2023-11-19T01:37:34;3.47;;;1.10;;
4375;SDS011;2202;50.866;12.750;2023-11-19T01:40:01;3.43;;;1.17;;
4375;SDS011;2202;50.866;12.750;2023-11-19T01:42:29;4.03;;;1.10;;
4375;SDS011;2202;50.866;12.750;2023-11-19T01:45:00;3.90;;;1.20;;
4375;SDS011;2202;50.866;12.750;2023-11-19T01:47:28;3.40;;;1.13;;
4375;SDS011;2202;50.866;12.750;2023-11-19T01:49:56;3.37;;;1.00;;
4375;SDS011;2202;50.866;12.750;2023-11-19T01:52:23;3.40;;;1.00;;
4375;SDS011;2202;50.866;12.750;2023-11-19T01:54:51;3.57;;;1.20;;
4375;SDS011;2202;50.866;12.750;2023-11-19T01:57:20;3.53;;;1.10;;
4375;SDS011;2202;50.866;12.750;2023-11-19T01:59:48;4.00;;;1.33;;
4375;SDS011;2202;50.866;12.750;2023-11-19T02:02:18;3.47;;;1.00;;
4375;SDS011;2202;50.866;12.750;2023-11-19T02:04:46;3.60;;;1.10;;
4375;SDS011;2202;50.866;12.750;2023-11-19T02:07:13;3.53;;;1.17;;
4375;SDS011;2202;50.866;12.750;2023-11-19T02:09:42;4.10;;;1.40;;
4375;SDS011;2202;50.866;12.750;2023-11-19T02:12:09;6.90;;;1.03;;
4375;SDS011;2202;50.866;12.750;2023-11-19T02:14:37;3.30;;;1.00;;
4375;SDS011;2202;50.866;12.750;2023-11-19T02:17:04;3.80;;;1.33;;
4375;SDS011;2202;50.866;12.750;2023-11-19T02:19:32;3.57;;;1.10;;
4375;SDS011;2202;50.866;12.750;2023-11-19T02:21:59;3.40;;;1.13;;
4375;SDS011;2202;50.866;12.750;2023-11-19T02:24:26;3.27;;;1.00;;
4375;SDS011;2202;50.866;12.750;2023-11-19T02:26:58;3.60;;;1.40;;
4375;SDS011;2202;50.866;12.750;2023-11-19T02:29:32;3.60;;;1.10;;
4375;SDS011;2202;50.866;12.750;2023-11-19T02:32:00;3.40;;;1.10;;
4375;SDS011;2202;50.866;12.750;2023-11-19T02:34:28;3.90;;;1.30;;
4375;SDS011;2202;50.866;12.750;2023-11-19T02:36:55;3.60;;;1.10;;
4375;SDS011;2202;50.866;12.750;2023-11-19T02:39:22;3.87;;;1.40;;
4375;SDS011;2202;50.866;12.750;2023-11-19T02:41:49;3.60;;;1.20;;
4375;SDS011;2202;50.866;12.750;2023-11-19T02:44:18;4.10;;;1.30;;
4375;SDS011;2202;50.866;12.750;2023-11-19T02:46:46;3.60;;;1.10;;
4375;SDS011;2202;50.866;12.750;2023-11-19T02:49:13;4.80;;;1.50;;
4375;SDS011;2202;50.866;12.750;2023-11-19T02:51:41;4.60;;;1.40;;
4375;SDS011;2202;50.866;12.750;2023-11-19T02:54:08;4.20;;;1.57;;
4375;SDS011;2202;50.866;12.750;2023-11-19T02:56:35;4.07;;;1.50;;
4375;SDS011;2202;50.866;12.750;2023-11-19T02:59:04;4.40;;;1.30;;
4375;SDS011;2202;50.866;12.750;2023-11-19T03:01:39;4.30;;;1.30;;
4375;SDS011;2202;50.866;12.750;2023-11-19T03:04:10;4.90;;;1.73;;
4375;SDS011;2202;50.866;12.750;2023-11-19T03:06:37;4.30;;;1.50;;
4375;SDS011;2202;50.866;12.750;2023-11-19T03:09:04;4.80;;;1.80;;
4375;SDS011;2202;50.866;12.750;2023-11-19T03:11:35;4.30;;;1.27;;
4375;SDS011;2202;50.866;12.750;2023-11-19T03:14:02;4.10;;;1.40;;
4375;SDS011;2202;50.866;12.750;2023-11-19T03:16:29;4.13;;;1.23;;
4375;SDS011;2202;50.866;12.750;2023-11-19T03:18:56;4.93;;;1.40;;
4375;SDS011;2202;50.866;12.750;2023-11-19T03:21:28;4.30;;;1.30;;
4375;SDS011;2202;50.866;12.750;2023-11-19T03:23:56;4.60;;;1.70;;
4375;SDS011;2202;50.866;12.750;2023-11-19T03:26:25;4.27;;;1.40;;
4375;SDS011;2202;50.866;12.750;2023-11-19T03:28:52;4.20;;;1.20;;
4375;SDS011;2202;50.866;12.750;2023-11-19T03:31:19;4.10;;;1.20;;
4375;SDS011;2202;50.866;12.750;2023-11-19T03:33:46;4.30;;;1.30;;
4375;SDS011;2202;50.866;12.750;2023-11-19T03:36:13;4.30;;;1.27;;
4375;SDS011;2202;50.866;12.750;2023-11-19T03:38:41;4.63;;;1.43;;
4375;SDS011;2202;50.866;12.750;2023-11-19T03:41:11;4.73;;;1.30;;
4375;SDS011;2202;50.866;12.750;2023-11-19T03:43:38;4.00;;;1.20;;
4375;SDS011;2202;50.866;12.750;2023-11-19T03:46:08;6.57;;;1.17;;
4375;SDS011;2202;50.866;12.750;2023-11-19T03:48:42;4.07;;;1.10;;
4375;SDS011;2202;50.866;12.750;2023-11-19T03:51:09;4.20;;;1.20;;
4375;SDS011;2202;50.866;12.750;2023-11-19T03:53:41;4.87;;;1.10;;
4375;SDS011;2202;50.866;12.750;2023-11-19T03:56:08;3.97;;;1.03;;
4375;SDS011;2202;50.866;12.750;2023-11-19T03:58:36;4.23;;;1.10;;
4375;SDS011;2202;50.866;12.750;2023-11-19T04:01:04;4.13;;;1.00;;
4375;SDS011;2202;50.866;12.750;2023-11-19T04:03:31;4.27;;;1.20;;
4375;SDS011;2202;50.866;12.750;2023-11-19T04:05:58;4.10;;;1.00;;
4375;SDS011;2202;50.866;12.750;2023-11-19T04:08:25;4.27;;;1.20;;
4375;SDS011;2202;50.866;12.750;2023-11-19T04:10:53;4.00;;;1.13;;
4375;SDS011;2202;50.866;12.750;2023-11-19T04:13:20;4.07;;;0.90;;
4375;SDS011;2202;50.866;12.750;2023-11-19T04:15:47;4.50;;;1.30;;
4375;SDS011;2202;50.866;12.750;2023-11-19T04:18:15;3.90;;;1.00;;
4375;SDS011;2202;50.866;12.750;2023-11-19T04:20:42;4.10;;;1.10;;
4375;SDS011;2202;50.866;12.750;2023-11-19T04:23:09;4.23;;;1.37;;
4375;SDS011;2202;50.866;12.750;2023-11-19T04:25:36;4.10;;;1.17;;
4375;SDS011;2202;50.866;12.750;2023-11-19T04:28:04;4.40;;;1.20;;
4375;SDS011;2202;50.866;12.750;2023-11-19T04:30:31;4.20;;;1.20;;
4375;SDS011;2202;50.866;12.750;2023-11-19T04:32:58;4.30;;;1.27;;
4375;SDS011;2202;50.866;12.750;2023-11-19T04:35:25;4.43;;;1.27;;
4375;SDS011;2202;50.866;12.750;2023-11-19T04:37:52;4.10;;;1.20;;
4375;SDS011;2202;50.866;12.750;2023-11-19T04:40:19;5.00;;;1.40;;
4375;SDS011;2202;50.866;12.750;2023-11-19T04:42:47;4.60;;;1.33;;
4375;SDS011;2202;50.866;12.750;2023-11-19T04:45:15;4.83;;;1.70;;
4375;SDS011;2202;50.866;12.750;2023-11-19T04:47:42;5.00;;;1.50;;
4375;SDS011;2202;50.866;12.750;2023-11-19T04:50:09;4.63;;;1.40;;
4375;SDS011;2202;50.866;12.750;2023-11-19T04:52:37;4.50;;;1.37;;
4375;SDS011;2202;50.866;12.750;2023-11-19T04:55:05;4.80;;;1.67;;
4375;SDS011;2202;50.866;12.750;2023-11-19T04:57:32;4.80;;;1.33;;
4375;SDS011;2202;50.866;12.750;2023-11-19T04:59:59;4.40;;;1.20;;
4375;SDS011;2202;50.866;12.750;2023-11-19T05:02:27;5.00;;;1.27;;
4375;SDS011;2202;50.866;12.750;2023-11-19T05:04:54;4.90;;;1.37;;
4375;SDS011;2202;50.866;12.750;2023-11-19T05:07:21;5.03;;;1.53;;
4375;SDS011;2202;50.866;12.750;2023-11-19T05:09:48;4.70;;;1.40;;
4375;SDS011;2202;50.866;12.750;2023-11-19T05:12:15;5.70;;;1.70;;
4375;SDS011;2202;50.866;12.750;2023-11-19T05:14:41;5.37;;;1.33;;
4375;SDS011;2202;50.866;12.750;2023-11-19T05:17:14;4.57;;;1.20;;
4375;SDS011;2202;50.866;12.750;2023-11-19T05:19:44;6.33;;;1.67;;
4375;SDS011;2202;50.866;12.750;2023-11-19T05:22:11;4.57;;;1.20;;
4375;SDS011;2202;50.866;12.750;2023-11-19T05:24:38;4.80;;;1.20;;
4375;SDS011;2202;50.866;12.750;2023-11-19T05:27:05;4.53;;;1.10;;
4375;SDS011;2202;50.866;12.750;2023-11-19T05:29:33;5.00;;;1.20;;
4375;SDS011;2202;50.866;12.750;2023-11-19T05:32:00;4.33;;;1.03;;
4375;SDS011;2202;50.866;12.750;2023-11-19T05:34:27;4.87;;;1.47;;
4375;SDS011;2202;50.866;12.750;2023-11-19T05:36:55;5.07;;;1.70;;
4375;SDS011;2202;50.866;12.750;2023-11-19T05:39:22;4.80;;;1.33;;
4375;SDS011;2202;50.866;12.750;2023-11-19T05:41:49;4.43;;;1.10;;
4375;SDS011;2202;50.866;12.750;2023-11-19T05:44:16;5.90;;;1.60;;
4375;SDS011;2202;50.866;12.750;2023-11-19T05:46:43;4.80;;;1.13;;
4375;SDS011;2202;50.866;12.750;2023-11-19T05:49:11;4.73;;;1.20;;
4375;SDS011;2202;50.866;12.750;2023-11-19T05:51:38;4.90;;;1.33;;
4375;SDS011;2202;50.866;12.750;2023-11-19T05:54:08;5.00;;;1.30;;
4375;SDS011;2202;50.866;12.750;2023-11-19T05:56:36;4.90;;;1.20;;
4375;SDS011;2202;50.866;12.750;2023-11-19T05:59:03;5.30;;;1.30;;
4375;SDS011;2202;50.866;12.750;2023-11-19T06:01:32;4.90;;;1.30;;
4375;SDS011;2202;50.866;12.750;2023-11-19T06:04:00;5.30;;;1.47;;
4375;SDS011;2202;50.866;12.750;2023-11-19T06:06:27;5.93;;;1.30;;
4375;SDS011;2202;50.866;12.750;2023-11-19T06:08:54;4.80;;;1.30;;
4375;SDS011;2202;50.866;12.750;2023-11-19T06:11:22;5.10;;;1.43;;
4375;SDS011;2202;50.866;12.750;2023-11-19T06:13:52;8.67;;;2.93;;
4375;SDS011;2202;50.866;12.750;2023-11-19T06:16:18;5.20;;;1.40;;
4375;SDS011;2202;50.866;12.750;2023-11-19T06:18:45;4.90;;;1.10;;
4375;SDS011;2202;50.866;12.750;2023-11-19T06:21:12;5.17;;;1.33;;
4375;SDS011;2202;50.866;12.750;2023-11-19T06:23:39;4.83;;;1.23;;
4375;SDS011;2202;50.866;12.750;2023-11-19T06:26:07;4.80;;;1.10;;
4375;SDS011;2202;50.866;12.750;2023-11-19T06:28:36;5.20;;;1.10;;
4375;SDS011;2202;50.866;12.750;2023-11-19T06:31:03;4.67;;;1.00;;
4375;SDS011;2202;50.866;12.750;2023-11-19T06:33:31;4.80;;;1.07;;
4375;SDS011;2202;50.866;12.750;2023-11-19T06:35:58;4.73;;;1.00;;
4375;SDS011;2202;50.866;12.750;2023-11-19T06:38:25;4.73;;;1.03;;
4375;SDS011;2202;50.866;12.750;2023-11-19T06:40:52;5.00;;;0.97;;
4375;SDS011;2202;50.866;12.750;2023-11-19T06:43:19;5.50;;;1.50;;
4375;SDS011;2202;50.866;12.750;2023-11-19T06:45:48;5.20;;;1.23;;
4375;SDS011;2202;50.866;12.750;2023-11-19T06:48:14;4.80;;;1.17;;
4375;SDS011;2202;50.866;12.750;2023-11-19T06:50:41;4.63;;;1.00;;
4375;SDS011;2202;50.866;12.750;2023-11-19T06:53:08;5.90;;;1.70;;
4375;SDS011;2202;50.866;12.750;2023-11-19T06:55:36;5.23;;;1.60;;
4375;SDS011;2202;50.866;12.750;2023-11-19T06:58:03;5.10;;;1.40;;
4375;SDS011;2202;50.866;12.750;2023-11-19T07:00:30;5.17;;;1.30;;
4375;SDS011;2202;50.866;12.750;2023-11-19T07:02:58;4.60;;;1.00;;
4375;SDS011;2202;50.866;12.750;2023-11-19T07:08:01;4.87;;;1.30;;
4375;SDS011;2202;50.866;12.750;2023-11-19T07:10:27;5.90;;;2.00;;
4375;SDS011;2202;50.866;12.750;2023-11-19T07:12:55;4.73;;;1.30;;
4375;SDS011;2202;50.866;12.750;2023-11-19T07:15:22;5.40;;;1.60;;
4375;SDS011;2202;50.866;12.750;2023-11-19T07:17:50;4.97;;;1.60;;
4375;SDS011;2202;50.866;12.750;2023-11-19T07:20:20;5.60;;;2.00;;
4375;SDS011;2202;50.866;12.750;2023-11-19T07:22:47;5.20;;;1.50;;
4375;SDS011;2202;50.866;12.750;2023-11-19T07:25:14;4.57;;;1.40;;
4375;SDS011;2202;50.866;12.750;2023-11-19T07:27:41;4.90;;;1.57;;
4375;SDS011;2202;50.866;12.750;2023-11-19T07:30:08;4.30;;;1.13;;
4375;SDS011;2202;50.866;12.750;2023-11-19T07:32:35;5.03;;;1.53;;
4375;SDS011;2202;50.866;12.750;2023-11-19T07:35:04;4.57;;;1.37;;
4375;SDS011;2202;50.866;12.750;2023-11-19T07:37:33;4.90;;;1.73;;
4375;SDS011;2202;50.866;12.750;2023-11-19T07:40:00;4.50;;;1.20;;
4375;SDS011;2202;50.866;12.750;2023-11-19T07:42:27;4.50;;;1.53;;
4375;SDS011;2202;50.866;12.750;2023-11-19T07:44:54;4.63;;;1.20;;
4375;SDS011;2202;50.866;12.750;2023-11-19T07:47:22;4.47;;;1.30;;
4375;SDS011;2202;50.866;12.750;2023-11-19T07:49:49;4.20;;;1.00;;
4375;SDS011;2202;50.866;12.750;2023-11-19T07:52:17;4.10;;;1.03;;
4375;SDS011;2202;50.866;12.750;2023-11-19T07:54:45;5.23;;;1.00;;
4375;SDS011;2202;50.866;12.750;2023-11-19T07:57:12;5.23;;;1.40;;
4375;SDS011;2202;50.866;12.750;2023-11-19T07:59:38;4.57;;;1.10;;
4375;SDS011;2202;50.866;12.750;2023-11-19T08:02:06;5.67;;;1.10;;
4375;SDS011;2202;50.866;12.750;2023-11-19T08:04:32;4.53;;;1.27;;
4375;SDS011;2202;50.866;12.750;2023-11-19T08:06:59;4.87;;;1.60;;
4375;SDS011;2202;50.866;12.750;2023-11-19T08:09:26;6.77;;;1.70;;
4375;SDS011;2202;50.866;12.750;2023-11-19T08:11:54;4.13;;;1.30;;
4375;SDS011;2202;50.866;12.750;2023-11-19T08:14:22;4.73;;;1.20;;
4375;SDS011;2202;50.866;12.750;2023-11-19T08:16:49;4.60;;;1.40;;
4375;SDS011;2202;50.866;12.750;2023-11-19T08:19:16;4.23;;;1.20;;
4375;SDS011;2202;50.866;12.750;2023-11-19T08:21:43;5.97;;;2.30;;
4375;SDS011;2202;50.866;12.750;2023-11-19T08:24:09;4.87;;;1.53;;
4375;SDS011;2202;50.866;12.750;2023-11-19T08:26:36;3.83;;;1.20;;
4375;SDS011;2202;50.866;12.750;2023-11-19T08:29:05;6.60;;;1.70;;
4375;SDS011;2202;50.866;12.750;2023-11-19T08:31:32;8.40;;;2.20;;
4375;SDS011;2202;50.866;12.750;2023-11-19T08:33:58;4.63;;;1.67;;
4375;SDS011;2202;50.866;12.750;2023-11-19T08:36:25;4.50;;;1.60;;
4375;SDS011;2202;50.866;12.750;2023-11-19T08:38:52;4.57;;;1.67;;
4375;SDS011;2202;50.866;12.750;2023-11-19T08:41:20;4.50;;;1.40;;
4375;SDS011;2202;50.866;12.750;2023-11-19T08:43:47;4.83;;;1.50;;
4375;SDS011;2202;50.866;12.750;2023-11-19T08:46:16;5.60;;;1.60;;
4375;SDS011;2202;50.866;12.750;2023-11-19T08:48:43;4.50;;;1.63;;
4375;SDS011;2202;50.866;12.750;2023-11-19T08:51:11;5.90;;;2.37;;
4375;SDS011;2202;50.866;12.750;2023-11-19T08:53:37;4.40;;;1.60;;
4375;SDS011;2202;50.866;12.750;2023-11-19T08:56:05;8.10;;;1.90;;
4375;SDS011;2202;50.866;12.750;2023-11-19T08:58:32;4.40;;;1.50;;
4375;SDS011;2202;50.866;12.750;2023-11-19T09:00:58;5.00;;;1.90;;
4375;SDS011;2202;50.866;12.750;2023-11-19T09:03:27;5.37;;;1.47;;
4375;SDS011;2202;50.866;12.750;2023-11-19T09:05:55;5.10;;;2.03;;
4375;SDS011;2202;50.866;12.750;2023-11-19T09:08:21;5.33;;;2.00;;
4375;SDS011;2202;50.866;12.750;2023-11-19T09:10:49;4.57;;;1.70;;
4375;SDS011;2202;50.866;12.750;2023-11-19T09:13:16;6.10;;;2.50;;
4375;SDS011;2202;50.866;12.750;2023-11-19T09:15:43;5.57;;;2.10;;
4375;SDS011;2202;50.866;12.750;2023-11-19T09:18:09;5.27;;;1.70;;
4375;SDS011;2202;50.866;12.750;2023-11-19T09:20:37;7.00;;;1.80;;
4375;SDS011;2202;50.866;12.750;2023-11-19T09:23:04;6.20;;;1.90;;
4375;SDS011;2202;50.866;12.750;2023-11-19T09:25:31;4.87;;;1.80;;
4375;SDS011;2202;50.866;12.750;2023-11-19T09:27:58;5.90;;;1.97;;
4375;SDS011;2202;50.866;12.750;2023-11-19T09:30:25;5.60;;;1.50;;
4375;SDS011;2202;50.866;12.750;2023-11-19T09:32:52;4.57;;;1.63;;
4375;SDS011;2202;50.866;12.750;2023-11-19T09:35:19;3.80;;;1.27;;
4375;SDS011;2202;50.866;12.750;2023-11-19T09:37:47;5.10;;;1.47;;
4375;SDS011;2202;50.866;12.750;2023-11-19T09:40:14;4.73;;;1.50;;
4375;SDS011;2202;50.866;12.750;2023-11-19T09:42:43;5.20;;;2.17;;
4375;SDS011;2202;50.866;12.750;2023-11-19T09:45:12;5.83;;;1.97;;
4375;SDS011;2202;50.866;12.750;2023-11-19T09:47:42;6.23;;;1.87;;
4375;SDS011;2202;50.866;12.750;2023-11-19T09:50:11;8.70;;;2.07;;
4375;SDS011;2202;50.866;12.750;2023-11-19T09:52:41;3.80;;;1.33;;
4375;SDS011;2202;50.866;12.750;2023-11-19T09:55:10;7.13;;;1.97;;
4375;SDS011;2202;50.866;12.750;2023-11-19T09:57:37;7.63;;;2.13;;
4375;SDS011;2202;50.866;12.750;2023-11-19T10:00:06;5.90;;;1.60;;
4375;SDS011;2202;50.866;12.750;2023-11-19T10:02:35;5.17;;;1.63;;
4375;SDS011;2202;50.866;12.750;2023-11-19T10:05:04;5.13;;;1.87;;
4375;SDS011;2202;50.866;12.750;2023-11-19T10:07:32;5.70;;;2.20;;
4375;SDS011;2202;50.866;12.750;2023-11-19T10:10:00;5.80;;;2.70;;
4375;SDS011;2202;50.866;12.750;2023-11-19T10:12:30;5.60;;;2.30;;
4375;SDS011;2202;50.866;12.750;2023-11-19T10:14:57;8.73;;;3.20;;
4375;SDS011;2202;50.866;12.750;2023-11-19T10:17:27;6.80;;;4.33;;
4375;SDS011;2202;50.866;12.750;2023-11-19T10:19:55;6.40;;;3.40;;
4375;SDS011;2202;50.866;12.750;2023-11-19T10:22:22;9.80;;;2.70;;
4375;SDS011;2202;50.866;12.750;2023-11-19T10:24:49;6.77;;;2.80;;
4375;SDS011;2202;50.866;12.750;2023-11-19T10:27:16;6.13;;;2.23;;
4375;SDS011;2202;50.866;12.750;2023-11-19T10:29:46;5.40;;;2.23;;
4375;SDS011;2202;50.866;12.750;2023-11-19T10:32:13;5.60;;;2.10;;
4375;SDS011;2202;50.866;12.750;2023-11-19T10:34:40;6.07;;;2.17;;
4375;SDS011;2202;50.866;12.750;2023-11-19T10:37:08;7.73;;;2.23;;
4375;SDS011;2202;50.866;12.750;2023-11-19T10:39:51;4.77;;;1.80;;
4375;SDS011;2202;50.866;12.750;2023-11-19T10:42:19;8.80;;;3.07;;
4375;SDS011;2202;50.866;12.750;2023-11-19T10:44:48;8.73;;;2.10;;
4375;SDS011;2202;50.866;12.750;2023-11-19T10:47:15;7.70;;;2.40;;
4375;SDS011;2202;50.866;12.750;2023-11-19T10:49:44;6.23;;;2.97;;
4375;SDS011;2202;50.866;12.750;2023-11-19T10:52:12;9.23;;;3.07;;
4375;SDS011;2202;50.866;12.750;2023-11-19T10:54:44;8.67;;;2.03;;
4375;SDS011;2202;50.866;12.750;2023-11-19T10:57:13;17.27;;;3.80;;
4375;SDS011;2202;50.866;12.750;2023-11-19T10:59:48;9.40;;;4.20;;
4375;SDS011;2202;50.866;12.750;2023-11-19T11:02:18;9.30;;;4.10;;
4375;SDS011;2202;50.866;12.750;2023-11-19T11:04:48;8.03;;;4.07;;
4375;SDS011;2202;50.866;12.750;2023-11-19T11:07:17;5.70;;;2.93;;
4375;SDS011;2202;50.866;12.750;2023-11-19T11:09:50;11.50;;;4.13;;
4375;SDS011;2202;50.866;12.750;2023-11-19T11:12:18;13.70;;;5.80;;
4375;SDS011;2202;50.866;12.750;2023-11-19T11:14:50;4.30;;;2.73;;
4375;SDS011;2202;50.866;12.750;2023-11-19T11:17:19;6.97;;;2.40;;
4375;SDS011;2202;50.866;12.750;2023-11-19T11:19:50;5.40;;;2.50;;
4375;SDS011;2202;50.866;12.750;2023-11-19T11:22:17;9.43;;;2.70;;
4375;SDS011;2202;50.866;12.750;2023-11-19T11:24:51;5.10;;;2.20;;
4375;SDS011;2202;50.866;12.750;2023-11-19T11:27:49;6.70;;;2.03;;
4375;SDS011;2202;50.866;12.750;2023-11-19T11:30:35;5.40;;;2.30;;
4375;SDS011;2202;50.866;12.750;2023-11-19T11:33:17;4.53;;;2.10;;
4375;SDS011;2202;50.866;12.750;2023-11-19T11:35:55;4.60;;;2.70;;
4375;SDS011;2202;50.866;12.750;2023-11-19T11:38:30;9.13;;;3.13;;
4375;SDS011;2202;50.866;12.750;2023-11-19T11:41:17;8.50;;;6.07;;
4375;SDS011;2202;50.866;12.750;2023-11-19T11:43:45;6.27;;;2.77;;
4375;SDS011;2202;50.866;12.750;2023-11-19T11:49:18;5.80;;;2.73;;
4375;SDS011;2202;50.866;12.750;2023-11-19T11:51:58;8.20;;;2.97;;
4375;SDS011;2202;50.866;12.750;2023-11-19T11:54:25;8.47;;;3.67;;
4375;SDS011;2202;50.866;12.750;2023-11-19T11:57:01;7.13;;;3.00;;
4375;SDS011;2202;50.866;12.750;2023-11-19T11:59:37;7.07;;;3.00;;
4375;SDS011;2202;50.866;12.750;2023-11-19T12:02:13;6.90;;;4.30;;
4375;SDS011;2202;50.866;12.750;2023-11-19T12:04:43;10.20;;;3.10;;
4375;SDS011;2202;50.866;12.750;2023-11-19T12:07:14;8.97;;;4.50;;
4375;SDS011;2202;50.866;12.750;2023-11-19T12:09:47;7.87;;;2.93;;
4375;SDS011;2202;50.866;12.750;2023-11-19T12:12:18;8.90;;;2.70;;
4375;SDS011;2202;50.866;12.750;2023-11-19T12:14:59;9.33;;;3.33;;
4375;SDS011;2202;50.866;12.750;2023-11-19T12:17:41;5.33;;;3.00;;
4375;SDS011;2202;50.866;12.750;2023-11-19T12:20:19;3.80;;;3.27;;
4375;SDS011;2202;50.866;12.750;2023-11-19T12:22:48;5.07;;;3.40;;
4375;SDS011;2202;50.866;12.750;2023-11-19T12:25:16;7.83;;;3.30;;
4375;SDS011;2202;50.866;12.750;2023-11-19T12:27:45;6.80;;;4.00;;
4375;SDS011;2202;50.866;12.750;2023-11-19T12:30:16;9.20;;;3.00;;
4375;SDS011;2202;50.866;12.750;2023-11-19T12:32:44;8.43;;;3.60;;
4375;SDS011;2202;50.866;12.750;2023-11-19T12:35:12;8.70;;;3.30;;
4375;SDS011;2202;50.866;12.750;2023-11-19T12:37:44;8.80;;;3.20;;
4375;SDS011;2202;50.866;12.750;2023-11-19T12:40:12;10.23;;;2.87;;
4375;SDS011;2202;50.866;12.750;2023-11-19T12:42:40;6.57;;;2.90;;
4375;SDS011;2202;50.866;12.750;2023-11-19T12:45:07;8.03;;;2.80;;
4375;SDS011;2202;50.866;12.750;2023-11-19T12:47:36;7.83;;;2.93;;
4375;SDS011;2202;50.866;12.750;2023-11-19T12:50:03;5.90;;;3.77;;
4375;SDS011;2202;50.866;12.750;2023-11-19T12:52:31;7.50;;;4.00;;
4375;SDS011;2202;50.866;12.750;2023-11-19T12:55:00;13.17;;;4.77;;
4375;SDS011;2202;50.866;12.750;2023-11-19T12:57:37;4.90;;;3.60;;
4375;SDS011;2202;50.866;12.750;2023-11-19T13:00:05;11.07;;;4.93;;
4375;SDS011;2202;50.866;12.750;2023-11-19T13:02:44;8.10;;;3.80;;
4375;SDS011;2202;50.866;12.750;2023-11-19T13:05:25;5.30;;;4.10;;
4375;SDS011;2202;50.866;12.750;2023-11-19T13:08:03;7.33;;;3.27;;
4375;SDS011;2202;50.866;12.750;2023-11-19T13:10:32;9.33;;;3.20;;
4375;SDS011;2202;50.866;12.750;2023-11-19T13:13:00;7.87;;;3.20;;
4375;SDS011;2202;50.866;12.750;2023-11-19T13:15:31;8.60;;;2.70;;
4375;SDS011;2202;50.866;12.750;2023-11-19T13:17:58;13.67;;;4.60;;
4375;SDS011;2202;50.866;12.750;2023-11-19T13:20:25;8.57;;;4.83;;
4375;SDS011;2202;50.866;12.750;2023-11-19T13:22:56;9.83;;;3.27;;
4375;SDS011;2202;50.866;12.750;2023-11-19T13:25:24;8.97;;;3.63;;
4375;SDS011;2202;50.866;12.750;2023-11-19T13:27:53;6.70;;;2.83;;
4375;SDS011;2202;50.866;12.750;2023-11-19T13:30:20;11.30;;;3.57;;
4375;SDS011;2202;50.866;12.750;2023-11-19T13:32:47;14.27;;;3.73;;
4375;SDS011;2202;50.866;12.750;2023-11-19T13:35:15;7.70;;;3.60;;
4375;SDS011;2202;50.866;12.750;2023-11-19T13:37:42;11.77;;;3.00;;
4375;SDS011;2202;50.866;12.750;2023-11-19T13:40:09;6.47;;;2.70;;
4375;SDS011;2202;50.866;12.750;2023-11-19T13:42:39;4.00;;;2.77;;
4375;SDS011;2202;50.866;12.750;2023-11-19T13:45:08;14.23;;;2.83;;
4375;SDS011;2202;50.866;12.750;2023-11-19T13:47:38;6.37;;;3.03;;
4375;SDS011;2202;50.866;12.750;2023-11-19T13:50:06;11.33;;;2.80;;
4375;SDS011;2202;50.866;12.750;2023-11-19T13:52:34;5.40;;;3.00;;
4375;SDS011;2202;50.866;12.750;2023-11-19T13:55:03;7.90;;;3.50;;
4375;SDS011;2202;50.866;12.750;2023-11-19T13:57:31;6.53;;;3.43;;
4375;SDS011;2202;50.866;12.750;2023-11-19T13:59:59;7.60;;;5.00;;
4375;SDS011;2202;50.866;12.750;2023-11-19T14:02:27;8.30;;;4.10;;
4375;SDS011;2202;50.866;12.750;2023-11-19T14:04:54;8.23;;;3.97;;
4375;SDS011;2202;50.866;12.750;2023-11-19T14:07:21;8.50;;;4.53;;
4375;SDS011;2202;50.866;12.750;2023-11-19T14:09:48;5.10;;;3.13;;
4375;SDS011;2202;50.866;12.750;2023-11-19T14:12:15;4.23;;;3.07;;
4375;SDS011;2202;50.866;12.750;2023-11-19T14:14:42;9.30;;;4.50;;
4375;SDS011;2202;50.866;12.750;2023-11-19T14:17:09;9.20;;;3.47;;
4375;SDS011;2202;50.866;12.750;2023-11-19T14:19:38;7.77;;;2.83;;
4375;SDS011;2202;50.866;12.750;2023-11-19T14:22:04;14.53;;;3.63;;
4375;SDS011;2202;50.866;12.750;2023-11-19T14:24:31;13.83;;;3.97;;
4375;SDS011;2202;50.866;12.750;2023-11-19T14:26:59;6.43;;;2.87;;
4375;SDS011;2202;50.866;12.750;2023-11-19T14:29:26;6.77;;;2.90;;
4375;SDS011;2202;50.866;12.750;2023-11-19T14:31:53;6.00;;;2.23;;
4375;SDS011;2202;50.866;12.750;2023-11-19T14:34:20;5.60;;;3.20;;
4375;SDS011;2202;50.866;12.750;2023-11-19T14:36:48;5.67;;;3.60;;
4375;SDS011;2202;50.866;12.750;2023-11-19T14:39:15;11.57;;;3.20;;
4375;SDS011;2202;50.866;12.750;2023-11-19T14:41:42;6.20;;;3.03;;
4375;SDS011;2202;50.866;12.750;2023-11-19T14:44:09;7.93;;;3.40;;
4375;SDS011;2202;50.866;12.750;2023-11-19T14:46:36;8.20;;;3.97;;
4375;SDS011;2202;50.866;12.750;2023-11-19T14:49:03;15.40;;;4.33;;
4375;SDS011;2202;50.866;12.750;2023-11-19T14:51:30;14.13;;;2.97;;
4375;SDS011;2202;50.866;12.750;2023-11-19T14:53:58;5.27;;;2.87;;
4375;SDS011;2202;50.866;12.750;2023-11-19T14:56:25;10.23;;;2.90;;
4375;SDS011;2202;50.866;12.750;2023-11-19T14:58:51;3.97;;;2.60;;
4375;SDS011;2202;50.866;12.750;2023-11-19T15:01:18;5.50;;;2.87;;
4375;SDS011;2202;50.866;12.750;2023-11-19T15:03:45;8.60;;;3.67;;
4375;SDS011;2202;50.866;12.750;2023-11-19T15:06:12;5.40;;;3.10;;
4375;SDS011;2202;50.866;12.750;2023-11-19T15:08:40;8.47;;;4.00;;
4375;SDS011;2202;50.866;12.750;2023-11-19T15:11:08;5.60;;;3.23;;
4375;SDS011;2202;50.866;12.750;2023-11-19T15:13:36;8.67;;;3.53;;